sensor_id;sensor_type;location;lat;lon;timestamp;P1;P2;P0
46573;PMS5003;32299;53.366;-1.544;2022-11-20T00:00:38;84;55;
46573;PMS5003;32299;53.366;-1.544;2022-11-20T00:03:05;80;64;
46573;PMS5003;32299;53.366;-1.544;2022-11-20T00:05:32;85;61;
46573;PMS5003;32299;53.366;-1.544;2022-11-20T00:08:01;74;57;
46573;PMS5003;32299;53.366;-1.544;2022-11-20T00:10:28;71;60;
46573;PMS5003;32299;53.366;-1.544;2022-11-20T00:12:57;70;51;
46573;PMS5003;32299;53.366;-1.544;2022-11-20T00:15:25;72;48;
46573;PMS5003;32299;53.366;-1.544;2022-11-20T00:17:52;69;48;
46573;PMS5003;32299;53.366;-1.544;2022-11-20T00:20:18;62;44;
46573;PMS5003;32299;53.366;-1.544;2022-11-20T00:22:46;74;51;
46573;PMS5003;32299;53.366;-1.544;2022-11-20T00:25:13;68;50;
46573;PMS5003;32299;53.366;-1.544;2022-11-20T00:27:41;52;48;
46573;PMS5003;32299;53.366;-1.544;2022-11-20T00:30:08;55;42;
46573;PMS5003;32299;53.366;-1.544;2022-11-20T00:32:36;54;43;
46573;PMS5003;32299;53.366;-1.544;2022-11-20T00:35:03;72;49;
46573;PMS5003;32299;53.366;-1.544;2022-11-20T00:37:31;68;46;
46573;PMS5003;32299;53.366;-1.544;2022-11-20T00:39:58;62;50;
46573;PMS5003;32299;53.366;-1.544;2022-11-20T00:42:24;65;45;
46573;PMS5003;32299;53.366;-1.544;2022-11-20T00:44:52;59;43;
46573;PMS5003;32299;53.366;-1.544;2022-11-20T00:47:20;55;50;
46573;PMS5003;32299;53.366;-1.544;2022-11-20T00:49:47;48;43;
46573;PMS5003;32299;53.366;-1.544;2022-11-20T00:52:15;52;40;
46573;PMS5003;32299;53.366;-1.544;2022-11-20T00:54:42;58;40;
46573;PMS5003;32299;53.366;-1.544;2022-11-20T00:57:09;53;41;
46573;PMS5003;32299;53.366;-1.544;2022-11-20T00:59:37;63;38;
46573;PMS5003;32299;53.366;-1.544;2022-11-20T01:02:04;45;38;
46573;PMS5003;32299;53.366;-1.544;2022-11-20T01:04:32;46;35;
46573;PMS5003;32299;53.366;-1.544;2022-11-20T01:06:59;39;36;
46573;PMS5003;32299;53.366;-1.544;2022-11-20T01:09:26;60;38;
46573;PMS5003;32299;53.366;-1.544;2022-11-20T01:11:54;57;39;
46573;PMS5003;32299;53.366;-1.544;2022-11-20T01:14:26;48;35;
46573;PMS5003;32299;53.366;-1.544;2022-11-20T01:16:54;45;37;
46573;PMS5003;32299;53.366;-1.544;2022-11-20T01:19:22;45;32;
46573;PMS5003;32299;53.366;-1.544;2022-11-20T01:21:50;54;35;
46573;PMS5003;32299;53.366;-1.544;2022-11-20T01:24:19;55;39;
46573;PMS5003;32299;53.366;-1.544;2022-11-20T01:26:47;43;38;
46573;PMS5003;32299;53.366;-1.544;2022-11-20T01:29:18;48;34;
46573;PMS5003;32299;53.366;-1.544;2022-11-20T01:31:47;42;31;
46573;PMS5003;32299;53.366;-1.544;2022-11-20T01:34:16;49;36;
46573;PMS5003;32299;53.366;-1.544;2022-11-20T01:36:45;37;34;
46573;PMS5003;32299;53.366;-1.544;2022-11-20T01:39:13;58;40;
46573;PMS5003;32299;53.366;-1.544;2022-11-20T01:41:42;41;34;
46573;PMS5003;32299;53.366;-1.544;2022-11-20T01:44:12;56;35;
46573;PMS5003;32299;53.366;-1.544;2022-11-20T01:46:42;54;35;
46573;PMS5003;32299;53.366;-1.544;2022-11-20T01:49:20;37;34;
46573;PMS5003;32299;53.366;-1.544;2022-11-20T01:51:53;46;37;
46573;PMS5003;32299;53.366;-1.544;2022-11-20T01:54:24;42;31;
46573;PMS5003;32299;53.366;-1.544;2022-11-20T01:56:57;42;33;
46573;PMS5003;32299;53.366;-1.544;2022-11-20T01:59:26;35;30;
46573;PMS5003;32299;53.366;-1.544;2022-11-20T02:01:55;51;35;
46573;PMS5003;32299;53.366;-1.544;2022-11-20T02:04:23;52;36;
46573;PMS5003;32299;53.366;-1.544;2022-11-20T02:06:53;63;40;
46573;PMS5003;32299;53.366;-1.544;2022-11-20T02:09:25;49;34;
46573;PMS5003;32299;53.366;-1.544;2022-11-20T02:11:53;48;36;
46573;PMS5003;32299;53.366;-1.544;2022-11-20T02:14:21;68;40;
46573;PMS5003;32299;53.366;-1.544;2022-11-20T02:16:49;49;35;
46573;PMS5003;32299;53.366;-1.544;2022-11-20T02:19:20;64;39;
46573;PMS5003;32299;53.366;-1.544;2022-11-20T02:21:53;54;37;
46573;PMS5003;32299;53.366;-1.544;2022-11-20T02:24:27;45;32;
46573;PMS5003;32299;53.366;-1.544;2022-11-20T02:26:56;57;38;
46573;PMS5003;32299;53.366;-1.544;2022-11-20T02:29:26;56;36;
46573;PMS5003;32299;53.366;-1.544;2022-11-20T02:31:58;44;36;
46573;PMS5003;32299;53.366;-1.544;2022-11-20T02:34:26;53;38;
46573;PMS5003;32299;53.366;-1.544;2022-11-20T02:36:53;47;37;
46573;PMS5003;32299;53.366;-1.544;2022-11-20T02:39:21;62;41;
46573;PMS5003;32299;53.366;-1.544;2022-11-20T02:41:52;47;29;
46573;PMS5003;32299;53.366;-1.544;2022-11-20T02:44:20;55;38;
46573;PMS5003;32299;53.366;-1.544;2022-11-20T02:46:47;54;40;
46573;PMS5003;32299;53.366;-1.544;2022-11-20T02:49:14;52;36;
46573;PMS5003;32299;53.366;-1.544;2022-11-20T02:51:41;57;41;
46573;PMS5003;32299;53.366;-1.544;2022-11-20T02:54:08;35;30;
46573;PMS5003;32299;53.366;-1.544;2022-11-20T02:56:37;45;37;
46573;PMS5003;32299;53.366;-1.544;2022-11-20T02:59:05;53;36;
46573;PMS5003;32299;53.366;-1.544;2022-11-20T03:01:32;51;33;
46573;PMS5003;32299;53.366;-1.544;2022-11-20T03:03:59;50;35;
46573;PMS5003;32299;53.366;-1.544;2022-11-20T03:06:27;40;34;
46573;PMS5003;32299;53.366;-1.544;2022-11-20T03:08:54;56;36;
46573;PMS5003;32299;53.366;-1.544;2022-11-20T03:11:21;42;31;
46573;PMS5003;32299;53.366;-1.544;2022-11-20T03:13:48;40;30;
46573;PMS5003;32299;53.366;-1.544;2022-11-20T03:16:16;38;30;
46573;PMS5003;32299;53.366;-1.544;2022-11-20T03:18:45;33;27;
46573;PMS5003;32299;53.366;-1.544;2022-11-20T03:21:13;44;30;
46573;PMS5003;32299;53.366;-1.544;2022-11-20T03:23:41;40;26;
46573;PMS5003;32299;53.366;-1.544;2022-11-20T03:26:09;47;30;
46573;PMS5003;32299;53.366;-1.544;2022-11-20T03:28:38;49;33;
46573;PMS5003;32299;53.366;-1.544;2022-11-20T03:31:07;33;28;
46573;PMS5003;32299;53.366;-1.544;2022-11-20T03:33:35;42;29;
46573;PMS5003;32299;53.366;-1.544;2022-11-20T03:36:03;35;29;
46573;PMS5003;32299;53.366;-1.544;2022-11-20T03:38:32;28;25;
46573;PMS5003;32299;53.366;-1.544;2022-11-20T03:41:00;41;27;
46573;PMS5003;32299;53.366;-1.544;2022-11-20T03:43:28;38;20;
46573;PMS5003;32299;53.366;-1.544;2022-11-20T03:45:55;35;26;
46573;PMS5003;32299;53.366;-1.544;2022-11-20T03:48:23;34;23;
46573;PMS5003;32299;53.366;-1.544;2022-11-20T03:50:50;32;23;
46573;PMS5003;32299;53.366;-1.544;2022-11-20T03:53:17;41;26;
46573;PMS5003;32299;53.366;-1.544;2022-11-20T03:55:45;37;24;
46573;PMS5003;32299;53.366;-1.544;2022-11-20T03:58:17;43;27;
46573;PMS5003;32299;53.366;-1.544;2022-11-20T04:00:44;41;22;
46573;PMS5003;32299;53.366;-1.544;2022-11-20T04:03:12;26;20;
46573;PMS5003;32299;53.366;-1.544;2022-11-20T04:05:39;50;25;
46573;PMS5003;32299;53.366;-1.544;2022-11-20T04:08:06;27;23;
46573;PMS5003;32299;53.366;-1.544;2022-11-20T04:10:34;23;23;
46573;PMS5003;32299;53.366;-1.544;2022-11-20T04:13:01;23;21;
46573;PMS5003;32299;53.366;-1.544;2022-11-20T04:15:28;35;17;
46573;PMS5003;32299;53.366;-1.544;2022-11-20T04:17:56;27;19;
46573;PMS5003;32299;53.366;-1.544;2022-11-20T04:20:23;20;16;
46573;PMS5003;32299;53.366;-1.544;2022-11-20T04:22:52;25;19;
46573;PMS5003;32299;53.366;-1.544;2022-11-20T04:25:20;24;17;
46573;PMS5003;32299;53.366;-1.544;2022-11-20T04:27:46;20;18;
46573;PMS5003;32299;53.366;-1.544;2022-11-20T04:30:13;16;12;
46573;PMS5003;32299;53.366;-1.544;2022-11-20T04:32:41;17;17;
46573;PMS5003;32299;53.366;-1.544;2022-11-20T04:35:08;17;11;
46573;PMS5003;32299;53.366;-1.544;2022-11-20T04:37:35;17;13;
46573;PMS5003;32299;53.366;-1.544;2022-11-20T04:40:02;14;12;
46573;PMS5003;32299;53.366;-1.544;2022-11-20T04:42:29;16;13;
46573;PMS5003;32299;53.366;-1.544;2022-11-20T04:44:56;12;12;
46573;PMS5003;32299;53.366;-1.544;2022-11-20T04:47:23;8;8;
46573;PMS5003;32299;53.366;-1.544;2022-11-20T04:49:50;10;10;
46573;PMS5003;32299;53.366;-1.544;2022-11-20T04:52:17;12;10;
46573;PMS5003;32299;53.366;-1.544;2022-11-20T04:54:44;10;8;
46573;PMS5003;32299;53.366;-1.544;2022-11-20T04:57:13;16;11;
46573;PMS5003;32299;53.366;-1.544;2022-11-20T04:59:40;10;8;
46573;PMS5003;32299;53.366;-1.544;2022-11-20T05:02:09;18;9;
46573;PMS5003;32299;53.366;-1.544;2022-11-20T05:04:37;7;7;
46573;PMS5003;32299;53.366;-1.544;2022-11-20T05:07:04;10;8;
46573;PMS5003;32299;53.366;-1.544;2022-11-20T05:09:32;10;10;
46573;PMS5003;32299;53.366;-1.544;2022-11-20T05:11:59;11;10;
46573;PMS5003;32299;53.366;-1.544;2022-11-20T05:14:26;11;8;
46573;PMS5003;32299;53.366;-1.544;2022-11-20T05:16:53;6;6;
46573;PMS5003;32299;53.366;-1.544;2022-11-20T05:19:20;6;5;
46573;PMS5003;32299;53.366;-1.544;2022-11-20T05:21:47;5;5;
46573;PMS5003;32299;53.366;-1.544;2022-11-20T05:24:14;6;5;
46573;PMS5003;32299;53.366;-1.544;2022-11-20T05:26:41;6;5;
46573;PMS5003;32299;53.366;-1.544;2022-11-20T05:29:10;5;3;
46573;PMS5003;32299;53.366;-1.544;2022-11-20T05:31:38;5;5;
46573;PMS5003;32299;53.366;-1.544;2022-11-20T05:34:06;4;4;
46573;PMS5003;32299;53.366;-1.544;2022-11-20T05:36:33;4;4;
46573;PMS5003;32299;53.366;-1.544;2022-11-20T05:39:00;2;2;
46573;PMS5003;32299;53.366;-1.544;2022-11-20T05:41:28;2;2;
46573;PMS5003;32299;53.366;-1.544;2022-11-20T05:43:55;2;2;
46573;PMS5003;32299;53.366;-1.544;2022-11-20T05:46:23;2;1;
46573;PMS5003;32299;53.366;-1.544;2022-11-20T05:48:50;1;1;
46573;PMS5003;32299;53.366;-1.544;2022-11-20T05:51:17;2;2;
46573;PMS5003;32299;53.366;-1.544;2022-11-20T05:53:46;0;0;
46573;PMS5003;32299;53.366;-1.544;2022-11-20T05:56:14;2;2;
46573;PMS5003;32299;53.366;-1.544;2022-11-20T05:58:42;2;2;
46573;PMS5003;32299;53.366;-1.544;2022-11-20T06:01:10;3;3;
46573;PMS5003;32299;53.366;-1.544;2022-11-20T06:03:40;2;2;
46573;PMS5003;32299;53.366;-1.544;2022-11-20T06:06:08;2;2;
46573;PMS5003;32299;53.366;-1.544;2022-11-20T06:08:35;3;2;
46573;PMS5003;32299;53.366;-1.544;2022-11-20T06:11:03;2;2;
46573;PMS5003;32299;53.366;-1.544;2022-11-20T06:13:31;2;2;
46573;PMS5003;32299;53.366;-1.544;2022-11-20T06:15:58;3;2;
46573;PMS5003;32299;53.366;-1.544;2022-11-20T06:18:26;2;2;
46573;PMS5003;32299;53.366;-1.544;2022-11-20T06:20:59;2;2;
46573;PMS5003;32299;53.366;-1.544;2022-11-20T06:23:28;2;2;
46573;PMS5003;32299;53.366;-1.544;2022-11-20T06:25:56;3;3;
46573;PMS5003;32299;53.366;-1.544;2022-11-20T06:28:27;2;2;
46573;PMS5003;32299;53.366;-1.544;2022-11-20T06:30:55;2;2;
46573;PMS5003;32299;53.366;-1.544;2022-11-20T06:33:22;3;3;
46573;PMS5003;32299;53.366;-1.544;2022-11-20T06:35:49;3;3;
46573;PMS5003;32299;53.366;-1.544;2022-11-20T06:38:16;3;3;
46573;PMS5003;32299;53.366;-1.544;2022-11-20T06:40:43;5;4;
46573;PMS5003;32299;53.366;-1.544;2022-11-20T06:43:10;4;4;
46573;PMS5003;32299;53.366;-1.544;2022-11-20T06:45:37;4;3;
46573;PMS5003;32299;53.366;-1.544;2022-11-20T06:48:04;4;4;
46573;PMS5003;32299;53.366;-1.544;2022-11-20T06:50:32;6;5;
46573;PMS5003;32299;53.366;-1.544;2022-11-20T06:53:00;4;4;
46573;PMS5003;32299;53.366;-1.544;2022-11-20T06:55:28;6;5;
46573;PMS5003;32299;53.366;-1.544;2022-11-20T06:57:55;4;4;
46573;PMS5003;32299;53.366;-1.544;2022-11-20T07:00:22;5;5;
46573;PMS5003;32299;53.366;-1.544;2022-11-20T07:02:49;6;5;
46573;PMS5003;32299;53.366;-1.544;2022-11-20T07:05:16;7;6;
46573;PMS5003;32299;53.366;-1.544;2022-11-20T07:07:44;4;4;
46573;PMS5003;32299;53.366;-1.544;2022-11-20T07:10:11;4;4;
46573;PMS5003;32299;53.366;-1.544;2022-11-20T07:12:38;17;5;
46573;PMS5003;32299;53.366;-1.544;2022-11-20T07:15:06;9;8;
46573;PMS5003;32299;53.366;-1.544;2022-11-20T07:17:33;7;6;
46573;PMS5003;32299;53.366;-1.544;2022-11-20T07:20:00;5;5;
46573;PMS5003;32299;53.366;-1.544;2022-11-20T07:22:28;6;6;
46573;PMS5003;32299;53.366;-1.544;2022-11-20T07:24:55;5;5;
46573;PMS5003;32299;53.366;-1.544;2022-11-20T07:27:22;6;6;
46573;PMS5003;32299;53.366;-1.544;2022-11-20T07:29:49;7;7;
46573;PMS5003;32299;53.366;-1.544;2022-11-20T07:32:17;6;5;
46573;PMS5003;32299;53.366;-1.544;2022-11-20T07:34:44;6;6;
46573;PMS5003;32299;53.366;-1.544;2022-11-20T07:37:11;6;6;
46573;PMS5003;32299;53.366;-1.544;2022-11-20T07:39:38;10;7;
46573;PMS5003;32299;53.366;-1.544;2022-11-20T07:42:05;12;8;
46573;PMS5003;32299;53.366;-1.544;2022-11-20T07:44:34;9;7;
46573;PMS5003;32299;53.366;-1.544;2022-11-20T07:47:01;13;11;
46573;PMS5003;32299;53.366;-1.544;2022-11-20T07:49:29;19;10;
46573;PMS5003;32299;53.366;-1.544;2022-11-20T07:51:56;8;8;
46573;PMS5003;32299;53.366;-1.544;2022-11-20T07:54:23;8;8;
46573;PMS5003;32299;53.366;-1.544;2022-11-20T07:56:51;9;9;
46573;PMS5003;32299;53.366;-1.544;2022-11-20T07:59:18;12;10;
46573;PMS5003;32299;53.366;-1.544;2022-11-20T08:01:45;12;10;
46573;PMS5003;32299;53.366;-1.544;2022-11-20T08:04:12;16;10;
46573;PMS5003;32299;53.366;-1.544;2022-11-20T08:06:40;10;9;
46573;PMS5003;32299;53.366;-1.544;2022-11-20T08:09:07;15;12;
46573;PMS5003;32299;53.366;-1.544;2022-11-20T08:11:34;26;10;
46573;PMS5003;32299;53.366;-1.544;2022-11-20T08:14:01;12;10;
46573;PMS5003;32299;53.366;-1.544;2022-11-20T08:16:29;18;16;
46573;PMS5003;32299;53.366;-1.544;2022-11-20T08:18:56;11;11;
46573;PMS5003;32299;53.366;-1.544;2022-11-20T08:21:22;12;10;
46573;PMS5003;32299;53.366;-1.544;2022-11-20T08:23:50;13;10;
46573;PMS5003;32299;53.366;-1.544;2022-11-20T08:26:17;18;12;
46573;PMS5003;32299;53.366;-1.544;2022-11-20T08:28:44;15;12;
46573;PMS5003;32299;53.366;-1.544;2022-11-20T08:31:10;24;11;
46573;PMS5003;32299;53.366;-1.544;2022-11-20T08:33:37;13;8;
46573;PMS5003;32299;53.366;-1.544;2022-11-20T08:36:05;13;10;
46573;PMS5003;32299;53.366;-1.544;2022-11-20T08:38:32;15;11;
46573;PMS5003;32299;53.366;-1.544;2022-11-20T08:41:00;14;9;
46573;PMS5003;32299;53.366;-1.544;2022-11-20T08:43:28;14;11;
46573;PMS5003;32299;53.366;-1.544;2022-11-20T08:45:56;10;9;
46573;PMS5003;32299;53.366;-1.544;2022-11-20T08:48:24;12;11;
46573;PMS5003;32299;53.366;-1.544;2022-11-20T08:50:52;10;8;
46573;PMS5003;32299;53.366;-1.544;2022-11-20T08:53:19;11;8;
46573;PMS5003;32299;53.366;-1.544;2022-11-20T08:55:46;11;8;
46573;PMS5003;32299;53.366;-1.544;2022-11-20T08:58:13;8;8;
46573;PMS5003;32299;53.366;-1.544;2022-11-20T09:00:40;11;9;
46573;PMS5003;32299;53.366;-1.544;2022-11-20T09:03:06;9;7;
46573;PMS5003;32299;53.366;-1.544;2022-11-20T09:05:34;10;7;
46573;PMS5003;32299;53.366;-1.544;2022-11-20T09:08:01;9;6;
46573;PMS5003;32299;53.366;-1.544;2022-11-20T09:10:28;7;7;
46573;PMS5003;32299;53.366;-1.544;2022-11-20T09:12:55;7;5;
46573;PMS5003;32299;53.366;-1.544;2022-11-20T09:15:23;11;7;
46573;PMS5003;32299;53.366;-1.544;2022-11-20T09:17:51;15;10;
46573;PMS5003;32299;53.366;-1.544;2022-11-20T09:20:19;8;7;
46573;PMS5003;32299;53.366;-1.544;2022-11-20T09:22:46;9;7;
46573;PMS5003;32299;53.366;-1.544;2022-11-20T09:25:14;6;6;
46573;PMS5003;32299;53.366;-1.544;2022-11-20T09:27:41;10;8;
46573;PMS5003;32299;53.366;-1.544;2022-11-20T09:30:08;17;8;
46573;PMS5003;32299;53.366;-1.544;2022-11-20T09:32:36;10;8;
46573;PMS5003;32299;53.366;-1.544;2022-11-20T09:35:04;8;8;
46573;PMS5003;32299;53.366;-1.544;2022-11-20T09:37:32;9;9;
46573;PMS5003;32299;53.366;-1.544;2022-11-20T09:39:59;13;9;
46573;PMS5003;32299;53.366;-1.544;2022-11-20T09:42:29;16;11;
46573;PMS5003;32299;53.366;-1.544;2022-11-20T09:45:08;24;8;
46573;PMS5003;32299;53.366;-1.544;2022-11-20T09:47:52;10;9;
46573;PMS5003;32299;53.366;-1.544;2022-11-20T09:50:31;16;9;
46573;PMS5003;32299;53.366;-1.544;2022-11-20T09:53:07;13;9;
46573;PMS5003;32299;53.366;-1.544;2022-11-20T09:55:39;10;8;
46573;PMS5003;32299;53.366;-1.544;2022-11-20T09:58:07;20;11;
46573;PMS5003;32299;53.366;-1.544;2022-11-20T10:00:42;8;8;
46573;PMS5003;32299;53.366;-1.544;2022-11-20T10:03:13;11;9;
46573;PMS5003;32299;53.366;-1.544;2022-11-20T10:05:45;10;9;
46573;PMS5003;32299;53.366;-1.544;2022-11-20T10:08:17;8;8;
46573;PMS5003;32299;53.366;-1.544;2022-11-20T10:10:50;11;9;
46573;PMS5003;32299;53.366;-1.544;2022-11-20T10:13:27;12;9;
46573;PMS5003;32299;53.366;-1.544;2022-11-20T10:16:09;25;9;
46573;PMS5003;32299;53.366;-1.544;2022-11-20T10:18:53;12;8;
46573;PMS5003;32299;53.366;-1.544;2022-11-20T10:21:33;9;8;
46573;PMS5003;32299;53.366;-1.544;2022-11-20T10:24:17;10;7;
46573;PMS5003;32299;53.366;-1.544;2022-11-20T10:27:10;9;7;
46573;PMS5003;32299;53.366;-1.544;2022-11-20T10:30:00;18;10;
46573;PMS5003;32299;53.366;-1.544;2022-11-20T10:32:31;11;7;
46573;PMS5003;32299;53.366;-1.544;2022-11-20T10:35:04;9;7;
46573;PMS5003;32299;53.366;-1.544;2022-11-20T10:37:41;7;7;
46573;PMS5003;32299;53.366;-1.544;2022-11-20T10:40:18;9;7;
46573;PMS5003;32299;53.366;-1.544;2022-11-20T10:42:49;9;7;
46573;PMS5003;32299;53.366;-1.544;2022-11-20T10:45:31;10;6;
46573;PMS5003;32299;53.366;-1.544;2022-11-20T10:48:10;16;7;
46573;PMS5003;32299;53.366;-1.544;2022-11-20T10:50:45;14;8;
46573;PMS5003;32299;53.366;-1.544;2022-11-20T10:53:25;9;5;
46573;PMS5003;32299;53.366;-1.544;2022-11-20T10:56:07;23;7;
46573;PMS5003;32299;53.366;-1.544;2022-11-20T10:58:44;9;6;
46573;PMS5003;32299;53.366;-1.544;2022-11-20T11:01:20;10;7;
46573;PMS5003;32299;53.366;-1.544;2022-11-20T11:03:47;9;6;
46573;PMS5003;32299;53.366;-1.544;2022-11-20T11:06:17;23;8;
46573;PMS5003;32299;53.366;-1.544;2022-11-20T11:08:51;11;8;
46573;PMS5003;32299;53.366;-1.544;2022-11-20T11:11:23;13;9;
46573;PMS5003;32299;53.366;-1.544;2022-11-20T11:14:03;12;11;
46573;PMS5003;32299;53.366;-1.544;2022-11-20T11:16:32;21;10;
46573;PMS5003;32299;53.366;-1.544;2022-11-20T11:19:06;14;7;
46573;PMS5003;32299;53.366;-1.544;2022-11-20T11:21:38;10;10;
46573;PMS5003;32299;53.366;-1.544;2022-11-20T11:24:15;8;8;
46573;PMS5003;32299;53.366;-1.544;2022-11-20T11:26:52;20;11;
46573;PMS5003;32299;53.366;-1.544;2022-11-20T11:29:22;12;10;
46573;PMS5003;32299;53.366;-1.544;2022-11-20T11:31:49;11;11;
46573;PMS5003;32299;53.366;-1.544;2022-11-20T11:34:16;14;10;
46573;PMS5003;32299;53.366;-1.544;2022-11-20T11:36:49;11;10;
46573;PMS5003;32299;53.366;-1.544;2022-11-20T11:39:26;15;8;
46573;PMS5003;32299;53.366;-1.544;2022-11-20T11:41:55;17;8;
46573;PMS5003;32299;53.366;-1.544;2022-11-20T11:44:24;15;10;
46573;PMS5003;32299;53.366;-1.544;2022-11-20T11:46:56;10;8;
46573;PMS5003;32299;53.366;-1.544;2022-11-20T11:49:24;12;10;
46573;PMS5003;32299;53.366;-1.544;2022-11-20T11:51:56;11;8;
46573;PMS5003;32299;53.366;-1.544;2022-11-20T11:54:31;23;10;
46573;PMS5003;32299;53.366;-1.544;2022-11-20T11:57:07;11;7;
46573;PMS5003;32299;53.366;-1.544;2022-11-20T11:59:44;10;8;
46573;PMS5003;32299;53.366;-1.544;2022-11-20T12:02:25;6;5;
46573;PMS5003;32299;53.366;-1.544;2022-11-20T12:05:00;8;7;
46573;PMS5003;32299;53.366;-1.544;2022-11-20T12:07:38;6;6;
46573;PMS5003;32299;53.366;-1.544;2022-11-20T12:10:13;12;6;
46573;PMS5003;32299;53.366;-1.544;2022-11-20T12:12:46;8;6;
46573;PMS5003;32299;53.366;-1.544;2022-11-20T12:15:21;9;7;
46573;PMS5003;32299;53.366;-1.544;2022-11-20T12:17:52;14;5;
46573;PMS5003;32299;53.366;-1.544;2022-11-20T12:20:19;9;6;
46573;PMS5003;32299;53.366;-1.544;2022-11-20T12:22:52;7;5;
46573;PMS5003;32299;53.366;-1.544;2022-11-20T12:25:29;10;5;
46573;PMS5003;32299;53.366;-1.544;2022-11-20T12:28:03;12;5;
46573;PMS5003;32299;53.366;-1.544;2022-11-20T12:30:48;9;6;
46573;PMS5003;32299;53.366;-1.544;2022-11-20T12:33:34;11;5;
46573;PMS5003;32299;53.366;-1.544;2022-11-20T12:36:17;21;5;
46573;PMS5003;32299;53.366;-1.544;2022-11-20T12:38:59;8;3;
46573;PMS5003;32299;53.366;-1.544;2022-11-20T12:42:33;16;5;
46573;PMS5003;32299;53.366;-1.544;2022-11-20T12:45:14;9;6;
46573;PMS5003;32299;53.366;-1.544;2022-11-20T12:47:59;3;3;
46573;PMS5003;32299;53.366;-1.544;2022-11-20T12:50:43;8;5;
46573;PMS5003;32299;53.366;-1.544;2022-11-20T12:53:22;7;5;
46573;PMS5003;32299;53.366;-1.544;2022-11-20T12:55:59;7;4;
46573;PMS5003;32299;53.366;-1.544;2022-11-20T12:58:42;7;5;
46573;PMS5003;32299;53.366;-1.544;2022-11-20T13:01:21;7;4;
46573;PMS5003;32299;53.366;-1.544;2022-11-20T13:03:57;9;3;
46573;PMS5003;32299;53.366;-1.544;2022-11-20T13:06:31;6;4;
46573;PMS5003;32299;53.366;-1.544;2022-11-20T13:08:59;18;4;
46573;PMS5003;32299;53.366;-1.544;2022-11-20T13:11:30;11;6;
46573;PMS5003;32299;53.366;-1.544;2022-11-20T13:14:07;10;5;
46573;PMS5003;32299;53.366;-1.544;2022-11-20T13:16:45;8;3;
46573;PMS5003;32299;53.366;-1.544;2022-11-20T13:19:19;8;5;
46573;PMS5003;32299;53.366;-1.544;2022-11-20T13:21:48;16;3;
46573;PMS5003;32299;53.366;-1.544;2022-11-20T13:24:24;4;3;
46573;PMS5003;32299;53.366;-1.544;2022-11-20T13:27:01;6;4;
46573;PMS5003;32299;53.366;-1.544;2022-11-20T13:29:31;10;4;
46573;PMS5003;32299;53.366;-1.544;2022-11-20T13:32:02;5;5;
46573;PMS5003;32299;53.366;-1.544;2022-11-20T13:34:31;5;5;
46573;PMS5003;32299;53.366;-1.544;2022-11-20T13:36:59;7;4;
46573;PMS5003;32299;53.366;-1.544;2022-11-20T13:39:26;7;6;
46573;PMS5003;32299;53.366;-1.544;2022-11-20T13:41:56;14;5;
46573;PMS5003;32299;53.366;-1.544;2022-11-20T13:44:25;18;6;
46573;PMS5003;32299;53.366;-1.544;2022-11-20T13:46:56;6;5;
46573;PMS5003;32299;53.366;-1.544;2022-11-20T13:49:25;11;6;
46573;PMS5003;32299;53.366;-1.544;2022-11-20T13:51:58;6;3;
46573;PMS5003;32299;53.366;-1.544;2022-11-20T13:54:51;6;4;
46573;PMS5003;32299;53.366;-1.544;2022-11-20T13:58:02;4;3;
46573;PMS5003;32299;53.366;-1.544;2022-11-20T14:00:46;3;2;
46573;PMS5003;32299;53.366;-1.544;2022-11-20T14:03:18;8;6;
46573;PMS5003;32299;53.366;-1.544;2022-11-20T14:05:49;4;2;
46573;PMS5003;32299;53.366;-1.544;2022-11-20T14:08:23;6;3;
46573;PMS5003;32299;53.366;-1.544;2022-11-20T14:11:02;12;4;
46573;PMS5003;32299;53.366;-1.544;2022-11-20T14:13:31;8;4;
46573;PMS5003;32299;53.366;-1.544;2022-11-20T14:15:58;5;4;
46573;PMS5003;32299;53.366;-1.544;2022-11-20T14:18:25;9;4;
46573;PMS5003;32299;53.366;-1.544;2022-11-20T14:20:53;6;4;
46573;PMS5003;32299;53.366;-1.544;2022-11-20T14:23:23;7;4;
46573;PMS5003;32299;53.366;-1.544;2022-11-20T14:25:52;2;1;
46573;PMS5003;32299;53.366;-1.544;2022-11-20T14:28:21;5;4;
46573;PMS5003;32299;53.366;-1.544;2022-11-20T14:30:53;7;4;
46573;PMS5003;32299;53.366;-1.544;2022-11-20T14:33:21;8;3;
46573;PMS5003;32299;53.366;-1.544;2022-11-20T14:35:49;9;3;
46573;PMS5003;32299;53.366;-1.544;2022-11-20T14:38:19;11;3;
46573;PMS5003;32299;53.366;-1.544;2022-11-20T14:40:50;11;4;
46573;PMS5003;32299;53.366;-1.544;2022-11-20T14:43:19;11;4;
46573;PMS5003;32299;53.366;-1.544;2022-11-20T14:45:52;5;2;
46573;PMS5003;32299;53.366;-1.544;2022-11-20T14:48:25;7;4;
46573;PMS5003;32299;53.366;-1.544;2022-11-20T14:50:56;11;5;
46573;PMS5003;32299;53.366;-1.544;2022-11-20T14:53:24;25;7;
46573;PMS5003;32299;53.366;-1.544;2022-11-20T14:55:56;8;6;
46573;PMS5003;32299;53.366;-1.544;2022-11-20T14:58:25;21;6;
46573;PMS5003;32299;53.366;-1.544;2022-11-20T15:00:54;10;6;
46573;PMS5003;32299;53.366;-1.544;2022-11-20T15:03:22;9;7;
46573;PMS5003;32299;53.366;-1.544;2022-11-20T15:05:57;13;7;
46573;PMS5003;32299;53.366;-1.544;2022-11-20T15:08:24;6;4;
46573;PMS5003;32299;53.366;-1.544;2022-11-20T15:10:52;4;4;
46573;PMS5003;32299;53.366;-1.544;2022-11-20T15:13:24;5;5;
46573;PMS5003;32299;53.366;-1.544;2022-11-20T15:15:56;16;6;
46573;PMS5003;32299;53.366;-1.544;2022-11-20T15:18:26;8;6;
46573;PMS5003;32299;53.366;-1.544;2022-11-20T15:21:02;8;6;
46573;PMS5003;32299;53.366;-1.544;2022-11-20T15:23:34;7;6;
46573;PMS5003;32299;53.366;-1.544;2022-11-20T15:26:01;14;9;
46573;PMS5003;32299;53.366;-1.544;2022-11-20T15:28:30;7;6;
46573;PMS5003;32299;53.366;-1.544;2022-11-20T15:30:59;4;4;
46573;PMS5003;32299;53.366;-1.544;2022-11-20T15:33:27;9;4;
46573;PMS5003;32299;53.366;-1.544;2022-11-20T15:35:54;10;5;
46573;PMS5003;32299;53.366;-1.544;2022-11-20T15:38:22;13;7;
46573;PMS5003;32299;53.366;-1.544;2022-11-20T15:40:49;15;6;
46573;PMS5003;32299;53.366;-1.544;2022-11-20T15:43:17;6;5;
46573;PMS5003;32299;53.366;-1.544;2022-11-20T15:45:45;11;7;
46573;PMS5003;32299;53.366;-1.544;2022-11-20T15:48:16;7;6;
46573;PMS5003;32299;53.366;-1.544;2022-11-20T15:50:48;5;5;
46573;PMS5003;32299;53.366;-1.544;2022-11-20T15:53:19;14;8;
46573;PMS5003;32299;53.366;-1.544;2022-11-20T15:55:46;6;5;
46573;PMS5003;32299;53.366;-1.544;2022-11-20T15:58:13;5;5;
46573;PMS5003;32299;53.366;-1.544;2022-11-20T16:00:41;17;4;
46573;PMS5003;32299;53.366;-1.544;2022-11-20T16:03:09;3;3;
46573;PMS5003;32299;53.366;-1.544;2022-11-20T16:03:10;3;3;
46573;PMS5003;32299;53.366;-1.544;2022-11-20T16:05:38;9;5;
46573;PMS5003;32299;53.366;-1.544;2022-11-20T16:08:05;20;7;
46573;PMS5003;32299;53.366;-1.544;2022-11-20T16:10:33;6;5;
46573;PMS5003;32299;53.366;-1.544;2022-11-20T16:13:00;4;4;
46573;PMS5003;32299;53.366;-1.544;2022-11-20T16:15:28;3;2;
46573;PMS5003;32299;53.366;-1.544;2022-11-20T16:17:55;5;3;
46573;PMS5003;32299;53.366;-1.544;2022-11-20T16:20:22;3;3;
46573;PMS5003;32299;53.366;-1.544;2022-11-20T16:22:50;10;2;
46573;PMS5003;32299;53.366;-1.544;2022-11-20T16:25:23;8;5;
46573;PMS5003;32299;53.366;-1.544;2022-11-20T16:27:50;5;2;
46573;PMS5003;32299;53.366;-1.544;2022-11-20T16:30:17;2;2;
46573;PMS5003;32299;53.366;-1.544;2022-11-20T16:32:44;2;2;
46573;PMS5003;32299;53.366;-1.544;2022-11-20T16:35:11;2;1;